sensor_id;sensor_type;location;lat;lon;timestamp;P1;durP1;ratioP1;P2;durP2;ratioP2
71288;SDS011;59068;52.502;9.860;2023-03-14T00:00:05;2.10;;;1.00;;
71288;SDS011;59068;52.502;9.860;2023-03-14T00:02:37;4.13;;;1.40;;
71288;SDS011;59068;52.502;9.860;2023-03-14T00:05:04;3.60;;;1.20;;
71288;SDS011;59068;52.502;9.860;2023-03-14T00:07:35;1.13;;;1.00;;
71288;SDS011;59068;52.502;9.860;2023-03-14T00:10:04;2.87;;;1.17;;
71288;SDS011;59068;52.502;9.860;2023-03-14T00:12:31;1.87;;;1.20;;
71288;SDS011;59068;52.502;9.860;2023-03-14T00:15:02;1.80;;;1.20;;
71288;SDS011;59068;52.502;9.860;2023-03-14T00:17:28;1.90;;;1.03;;
71288;SDS011;59068;52.502;9.860;2023-03-14T00:19:55;3.93;;;1.10;;
71288;SDS011;59068;52.502;9.860;2023-03-14T00:22:22;2.97;;;1.20;;
71288;SDS011;59068;52.502;9.860;2023-03-14T00:24:49;2.07;;;0.93;;
71288;SDS011;59068;52.502;9.860;2023-03-14T00:27:16;2.47;;;1.00;;
71288;SDS011;59068;52.502;9.860;2023-03-14T00:29:43;2.23;;;1.27;;
71288;SDS011;59068;52.502;9.860;2023-03-14T00:32:09;2.13;;;1.33;;
71288;SDS011;59068;52.502;9.860;2023-03-14T00:34:34;1.50;;;0.90;;
71288;SDS011;59068;52.502;9.860;2023-03-14T00:37:00;5.17;;;1.20;;
71288;SDS011;59068;52.502;9.860;2023-03-14T00:39:26;2.53;;;1.30;;
71288;SDS011;59068;52.502;9.860;2023-03-14T00:41:53;2.73;;;1.30;;
71288;SDS011;59068;52.502;9.860;2023-03-14T00:44:19;1.80;;;1.00;;
71288;SDS011;59068;52.502;9.860;2023-03-14T00:46:46;2.40;;;1.00;;
71288;SDS011;59068;52.502;9.860;2023-03-14T00:49:12;2.77;;;1.10;;
71288;SDS011;59068;52.502;9.860;2023-03-14T00:51:39;3.03;;;1.10;;
71288;SDS011;59068;52.502;9.860;2023-03-14T00:54:04;1.30;;;0.93;;
71288;SDS011;59068;52.502;9.860;2023-03-14T00:56:31;1.90;;;1.07;;
71288;SDS011;59068;52.502;9.860;2023-03-14T00:58:57;2.63;;;1.30;;
71288;SDS011;59068;52.502;9.860;2023-03-14T01:01:24;2.80;;;0.93;;
71288;SDS011;59068;52.502;9.860;2023-03-14T01:03:54;4.63;;;1.10;;
71288;SDS011;59068;52.502;9.860;2023-03-14T01:06:28;2.50;;;1.10;;
71288;SDS011;59068;52.502;9.860;2023-03-14T01:08:56;2.00;;;1.30;;
71288;SDS011;59068;52.502;9.860;2023-03-14T01:11:25;4.90;;;1.40;;
71288;SDS011;59068;52.502;9.860;2023-03-14T01:13:53;2.70;;;1.00;;
71288;SDS011;59068;52.502;9.860;2023-03-14T01:16:21;1.90;;;0.77;;
71288;SDS011;59068;52.502;9.860;2023-03-14T01:18:49;2.37;;;0.93;;
71288;SDS011;59068;52.502;9.860;2023-03-14T01:21:19;3.00;;;1.20;;
71288;SDS011;59068;52.502;9.860;2023-03-14T01:23:56;1.50;;;1.10;;
71288;SDS011;59068;52.502;9.860;2023-03-14T01:26:24;3.80;;;1.20;;
71288;SDS011;59068;52.502;9.860;2023-03-14T01:28:54;2.67;;;1.17;;
71288;SDS011;59068;52.502;9.860;2023-03-14T01:31:22;2.10;;;1.10;;
71288;SDS011;59068;52.502;9.860;2023-03-14T01:33:49;3.07;;;1.17;;
71288;SDS011;59068;52.502;9.860;2023-03-14T01:36:16;2.50;;;1.30;;
71288;SDS011;59068;52.502;9.860;2023-03-14T01:38:41;3.30;;;1.13;;
71288;SDS011;59068;52.502;9.860;2023-03-14T01:41:09;1.53;;;1.10;;
71288;SDS011;59068;52.502;9.860;2023-03-14T01:43:41;2.30;;;0.93;;
71288;SDS011;59068;52.502;9.860;2023-03-14T01:48:39;2.20;;;1.00;;
71288;SDS011;59068;52.502;9.860;2023-03-14T01:51:11;3.63;;;1.17;;
71288;SDS011;59068;52.502;9.860;2023-03-14T01:53:40;3.33;;;1.13;;
71288;SDS011;59068;52.502;9.860;2023-03-14T01:56:09;2.73;;;1.20;;
71288;SDS011;59068;52.502;9.860;2023-03-14T01:58:38;4.17;;;1.30;;
71288;SDS011;59068;52.502;9.860;2023-03-14T02:01:05;3.93;;;1.10;;
71288;SDS011;59068;52.502;9.860;2023-03-14T02:03:34;2.97;;;1.30;;
71288;SDS011;59068;52.502;9.860;2023-03-14T02:06:04;2.63;;;1.13;;
71288;SDS011;59068;52.502;9.860;2023-03-14T02:08:33;3.20;;;1.10;;
71288;SDS011;59068;52.502;9.860;2023-03-14T02:10:59;3.00;;;0.90;;
71288;SDS011;59068;52.502;9.860;2023-03-14T02:13:24;3.47;;;1.10;;
71288;SDS011;59068;52.502;9.860;2023-03-14T02:15:52;2.97;;;0.97;;
71288;SDS011;59068;52.502;9.860;2023-03-14T02:18:18;2.03;;;0.90;;
71288;SDS011;59068;52.502;9.860;2023-03-14T02:23:38;3.00;;;1.17;;
71288;SDS011;59068;52.502;9.860;2023-03-14T02:26:10;2.37;;;1.23;;
71288;SDS011;59068;52.502;9.860;2023-03-14T02:28:39;3.07;;;1.23;;
71288;SDS011;59068;52.502;9.860;2023-03-14T02:31:05;1.53;;;1.07;;
71288;SDS011;59068;52.502;9.860;2023-03-14T02:33:34;3.17;;;1.17;;
71288;SDS011;59068;52.502;9.860;2023-03-14T02:36:01;1.83;;;0.87;;
71288;SDS011;59068;52.502;9.860;2023-03-14T02:38:39;3.23;;;1.13;;
71288;SDS011;59068;52.502;9.860;2023-03-14T02:41:12;5.60;;;1.37;;
71288;SDS011;59068;52.502;9.860;2023-03-14T02:43:38;3.23;;;0.93;;
71288;SDS011;59068;52.502;9.860;2023-03-14T02:46:03;2.00;;;0.90;;
71288;SDS011;59068;52.502;9.860;2023-03-14T02:48:34;2.97;;;1.47;;
71288;SDS011;59068;52.502;9.860;2023-03-14T02:51:06;1.70;;;0.80;;
71288;SDS011;59068;52.502;9.860;2023-03-14T02:53:33;1.70;;;1.00;;
71288;SDS011;59068;52.502;9.860;2023-03-14T02:56:02;2.03;;;0.90;;
71288;SDS011;59068;52.502;9.860;2023-03-14T02:58:29;3.37;;;0.90;;
71288;SDS011;59068;52.502;9.860;2023-03-14T03:00:56;2.17;;;0.80;;
71288;SDS011;59068;52.502;9.860;2023-03-14T03:03:22;1.80;;;0.80;;
71288;SDS011;59068;52.502;9.860;2023-03-14T03:05:49;2.53;;;1.40;;
71288;SDS011;59068;52.502;9.860;2023-03-14T03:08:18;3.27;;;1.10;;
71288;SDS011;59068;52.502;9.860;2023-03-14T03:10:44;3.20;;;1.27;;
71288;SDS011;59068;52.502;9.860;2023-03-14T03:13:10;0.80;;;0.80;;
71288;SDS011;59068;52.502;9.860;2023-03-14T03:15:35;2.37;;;1.03;;
71288;SDS011;59068;52.502;9.860;2023-03-14T03:18:01;2.03;;;0.97;;
71288;SDS011;59068;52.502;9.860;2023-03-14T03:20:28;4.77;;;1.03;;
71288;SDS011;59068;52.502;9.860;2023-03-14T03:22:53;1.80;;;0.70;;
71288;SDS011;59068;52.502;9.860;2023-03-14T03:25:20;3.70;;;1.00;;
71288;SDS011;59068;52.502;9.860;2023-03-14T03:27:47;2.73;;;0.90;;
71288;SDS011;59068;52.502;9.860;2023-03-14T03:30:13;2.67;;;0.90;;
71288;SDS011;59068;52.502;9.860;2023-03-14T03:32:40;2.23;;;0.70;;
71288;SDS011;59068;52.502;9.860;2023-03-14T03:35:06;1.53;;;0.80;;
71288;SDS011;59068;52.502;9.860;2023-03-14T03:37:33;2.50;;;0.90;;
71288;SDS011;59068;52.502;9.860;2023-03-14T03:39:59;3.40;;;1.20;;
71288;SDS011;59068;52.502;9.860;2023-03-14T03:42:27;3.30;;;1.20;;
71288;SDS011;59068;52.502;9.860;2023-03-14T03:44:54;2.30;;;0.90;;
71288;SDS011;59068;52.502;9.860;2023-03-14T03:47:20;0.90;;;0.73;;
71288;SDS011;59068;52.502;9.860;2023-03-14T03:49:46;2.83;;;1.10;;
71288;SDS011;59068;52.502;9.860;2023-03-14T03:52:13;2.43;;;1.00;;
71288;SDS011;59068;52.502;9.860;2023-03-14T03:54:39;2.37;;;1.00;;
71288;SDS011;59068;52.502;9.860;2023-03-14T03:57:05;2.20;;;0.80;;
71288;SDS011;59068;52.502;9.860;2023-03-14T03:59:32;2.67;;;0.50;;
71288;SDS011;59068;52.502;9.860;2023-03-14T04:01:57;3.13;;;0.57;;
71288;SDS011;59068;52.502;9.860;2023-03-14T04:04:24;1.83;;;0.63;;
71288;SDS011;59068;52.502;9.860;2023-03-14T04:06:50;1.03;;;0.53;;
71288;SDS011;59068;52.502;9.860;2023-03-14T04:09:16;1.40;;;0.30;;
71288;SDS011;59068;52.502;9.860;2023-03-14T04:11:45;2.07;;;0.37;;
71288;SDS011;59068;52.502;9.860;2023-03-14T04:14:12;1.40;;;0.30;;
71288;SDS011;59068;52.502;9.860;2023-03-14T04:16:39;1.77;;;0.47;;
71288;SDS011;59068;52.502;9.860;2023-03-14T04:19:06;1.07;;;0.27;;
71288;SDS011;59068;52.502;9.860;2023-03-14T04:21:32;2.40;;;0.40;;
71288;SDS011;59068;52.502;9.860;2023-03-14T04:23:57;1.83;;;0.27;;
71288;SDS011;59068;52.502;9.860;2023-03-14T04:26:23;1.40;;;0.47;;
71288;SDS011;59068;52.502;9.860;2023-03-14T04:28:50;1.53;;;0.40;;
71288;SDS011;59068;52.502;9.860;2023-03-14T04:31:18;1.33;;;0.37;;
71288;SDS011;59068;52.502;9.860;2023-03-14T04:33:46;1.40;;;0.30;;
71288;SDS011;59068;52.502;9.860;2023-03-14T04:36:12;3.30;;;0.40;;
71288;SDS011;59068;52.502;9.860;2023-03-14T04:38:39;0.70;;;0.50;;
71288;SDS011;59068;52.502;9.860;2023-03-14T04:41:05;1.30;;;0.50;;
71288;SDS011;59068;52.502;9.860;2023-03-14T04:43:32;1.53;;;0.40;;
71288;SDS011;59068;52.502;9.860;2023-03-14T04:45:59;1.80;;;0.60;;
71288;SDS011;59068;52.502;9.860;2023-03-14T04:48:25;0.73;;;0.40;;
71288;SDS011;59068;52.502;9.860;2023-03-14T04:50:53;1.10;;;0.30;;
71288;SDS011;59068;52.502;9.860;2023-03-14T04:53:19;1.63;;;0.20;;
71288;SDS011;59068;52.502;9.860;2023-03-14T04:55:49;1.00;;;0.50;;
71288;SDS011;59068;52.502;9.860;2023-03-14T04:58:17;1.60;;;0.43;;
71288;SDS011;59068;52.502;9.860;2023-03-14T05:00:45;1.27;;;0.40;;
71288;SDS011;59068;52.502;9.860;2023-03-14T05:03:11;0.97;;;0.30;;
71288;SDS011;59068;52.502;9.860;2023-03-14T05:05:39;0.50;;;0.40;;
71288;SDS011;59068;52.502;9.860;2023-03-14T05:08:04;0.83;;;0.40;;
71288;SDS011;59068;52.502;9.860;2023-03-14T05:10:30;1.07;;;0.40;;
71288;SDS011;59068;52.502;9.860;2023-03-14T05:12:55;3.13;;;0.80;;
71288;SDS011;59068;52.502;9.860;2023-03-14T05:15:20;2.07;;;0.70;;
71288;SDS011;59068;52.502;9.860;2023-03-14T05:17:46;0.80;;;0.50;;
71288;SDS011;59068;52.502;9.860;2023-03-14T05:20:11;4.60;;;0.97;;
71288;SDS011;59068;52.502;9.860;2023-03-14T05:22:40;2.93;;;1.17;;
71288;SDS011;59068;52.502;9.860;2023-03-14T05:25:06;1.80;;;0.50;;
71288;SDS011;59068;52.502;9.860;2023-03-14T05:27:32;1.40;;;0.80;;
71288;SDS011;59068;52.502;9.860;2023-03-14T05:29:58;1.00;;;0.53;;
71288;SDS011;59068;52.502;9.860;2023-03-14T05:32:23;0.60;;;0.30;;
71288;SDS011;59068;52.502;9.860;2023-03-14T05:34:49;0.53;;;0.30;;
71288;SDS011;59068;52.502;9.860;2023-03-14T05:37:16;2.17;;;0.70;;
71288;SDS011;59068;52.502;9.860;2023-03-14T05:39:47;2.63;;;0.57;;
71288;SDS011;59068;52.502;9.860;2023-03-14T05:42:13;1.00;;;0.63;;
71288;SDS011;59068;52.502;9.860;2023-03-14T05:44:38;1.33;;;0.80;;
71288;SDS011;59068;52.502;9.860;2023-03-14T05:47:03;1.53;;;0.57;;
71288;SDS011;59068;52.502;9.860;2023-03-14T05:49:29;2.03;;;0.67;;
71288;SDS011;59068;52.502;9.860;2023-03-14T05:51:54;3.63;;;0.73;;
71288;SDS011;59068;52.502;9.860;2023-03-14T05:54:20;2.97;;;0.70;;
71288;SDS011;59068;52.502;9.860;2023-03-14T05:56:45;3.70;;;1.00;;
71288;SDS011;59068;52.502;9.860;2023-03-14T05:59:10;2.30;;;0.90;;
71288;SDS011;59068;52.502;9.860;2023-03-14T06:01:36;2.83;;;0.73;;
71288;SDS011;59068;52.502;9.860;2023-03-14T06:04:01;3.00;;;1.23;;
71288;SDS011;59068;52.502;9.860;2023-03-14T06:06:26;1.63;;;0.87;;
71288;SDS011;59068;52.502;9.860;2023-03-14T06:08:53;3.90;;;1.10;;
71288;SDS011;59068;52.502;9.860;2023-03-14T06:11:19;2.17;;;0.90;;
71288;SDS011;59068;52.502;9.860;2023-03-14T06:13:46;2.83;;;0.80;;
71288;SDS011;59068;52.502;9.860;2023-03-14T06:16:12;3.27;;;0.80;;
71288;SDS011;59068;52.502;9.860;2023-03-14T06:18:40;2.87;;;0.80;;
71288;SDS011;59068;52.502;9.860;2023-03-14T06:21:07;1.77;;;0.70;;
71288;SDS011;59068;52.502;9.860;2023-03-14T06:23:32;2.67;;;0.70;;
71288;SDS011;59068;52.502;9.860;2023-03-14T06:25:59;3.53;;;1.07;;
71288;SDS011;59068;52.502;9.860;2023-03-14T06:28:25;4.20;;;0.90;;
71288;SDS011;59068;52.502;9.860;2023-03-14T06:30:52;2.50;;;1.07;;
71288;SDS011;59068;52.502;9.860;2023-03-14T06:33:18;6.30;;;1.53;;
71288;SDS011;59068;52.502;9.860;2023-03-14T06:35:45;4.47;;;0.90;;
71288;SDS011;59068;52.502;9.860;2023-03-14T06:38:12;3.93;;;1.20;;
71288;SDS011;59068;52.502;9.860;2023-03-14T06:40:38;2.13;;;0.93;;
71288;SDS011;59068;52.502;9.860;2023-03-14T06:43:04;3.27;;;1.20;;
71288;SDS011;59068;52.502;9.860;2023-03-14T06:45:30;2.53;;;0.80;;
71288;SDS011;59068;52.502;9.860;2023-03-14T06:47:55;3.67;;;0.93;;
71288;SDS011;59068;52.502;9.860;2023-03-14T06:50:22;2.03;;;0.67;;
71288;SDS011;59068;52.502;9.860;2023-03-14T06:52:49;3.07;;;0.97;;
71288;SDS011;59068;52.502;9.860;2023-03-14T06:55:16;3.67;;;0.87;;
71288;SDS011;59068;52.502;9.860;2023-03-14T06:57:41;2.90;;;0.70;;
71288;SDS011;59068;52.502;9.860;2023-03-14T07:00:10;0.90;;;0.40;;
71288;SDS011;59068;52.502;9.860;2023-03-14T07:02:37;2.40;;;0.70;;
71288;SDS011;59068;52.502;9.860;2023-03-14T07:05:03;2.70;;;0.73;;
71288;SDS011;59068;52.502;9.860;2023-03-14T07:07:29;4.27;;;0.60;;
71288;SDS011;59068;52.502;9.860;2023-03-14T07:09:56;2.03;;;0.70;;
71288;SDS011;59068;52.502;9.860;2023-03-14T07:12:23;2.13;;;0.50;;
71288;SDS011;59068;52.502;9.860;2023-03-14T07:14:50;3.70;;;0.40;;
71288;SDS011;59068;52.502;9.860;2023-03-14T07:17:15;1.90;;;0.60;;
71288;SDS011;59068;52.502;9.860;2023-03-14T07:19:42;0.77;;;0.37;;
71288;SDS011;59068;52.502;9.860;2023-03-14T07:22:07;1.43;;;0.50;;
71288;SDS011;59068;52.502;9.860;2023-03-14T07:24:34;3.53;;;0.57;;
71288;SDS011;59068;52.502;9.860;2023-03-14T07:27:00;0.50;;;0.20;;
71288;SDS011;59068;52.502;9.860;2023-03-14T07:29:26;1.80;;;0.40;;
71288;SDS011;59068;52.502;9.860;2023-03-14T07:31:53;0.53;;;0.30;;
71288;SDS011;59068;52.502;9.860;2023-03-14T07:34:19;1.27;;;0.43;;
71288;SDS011;59068;52.502;9.860;2023-03-14T07:36:46;3.00;;;0.40;;
71288;SDS011;59068;52.502;9.860;2023-03-14T07:39:12;0.77;;;0.20;;
71288;SDS011;59068;52.502;9.860;2023-03-14T07:41:39;0.73;;;0.30;;
71288;SDS011;59068;52.502;9.860;2023-03-14T07:44:04;0.57;;;0.27;;
71288;SDS011;59068;52.502;9.860;2023-03-14T07:46:31;0.43;;;0.40;;
71288;SDS011;59068;52.502;9.860;2023-03-14T07:48:58;0.83;;;0.23;;
71288;SDS011;59068;52.502;9.860;2023-03-14T07:51:24;0.20;;;0.20;;
71288;SDS011;59068;52.502;9.860;2023-03-14T07:53:51;1.30;;;0.20;;
71288;SDS011;59068;52.502;9.860;2023-03-14T07:56:18;1.13;;;0.20;;
71288;SDS011;59068;52.502;9.860;2023-03-14T07:58:44;1.80;;;0.20;;
71288;SDS011;59068;52.502;9.860;2023-03-14T08:01:10;1.33;;;0.30;;
71288;SDS011;59068;52.502;9.860;2023-03-14T08:03:37;0.50;;;0.17;;
71288;SDS011;59068;52.502;9.860;2023-03-14T08:06:02;0.43;;;0.20;;
71288;SDS011;59068;52.502;9.860;2023-03-14T08:08:29;0.50;;;0.10;;
71288;SDS011;59068;52.502;9.860;2023-03-14T08:10:56;1.33;;;0.30;;
71288;SDS011;59068;52.502;9.860;2023-03-14T08:13:21;1.43;;;0.20;;
71288;SDS011;59068;52.502;9.860;2023-03-14T08:15:48;1.30;;;0.20;;
71288;SDS011;59068;52.502;9.860;2023-03-14T08:18:15;0.20;;;0.10;;
71288;SDS011;59068;52.502;9.860;2023-03-14T08:20:42;0.63;;;0.30;;
71288;SDS011;59068;52.502;9.860;2023-03-14T08:23:08;0.23;;;0.10;;
71288;SDS011;59068;52.502;9.860;2023-03-14T08:25:35;0.87;;;0.20;;
71288;SDS011;59068;52.502;9.860;2023-03-14T08:28:02;1.30;;;0.27;;
71288;SDS011;59068;52.502;9.860;2023-03-14T08:30:28;0.63;;;0.20;;
71288;SDS011;59068;52.502;9.860;2023-03-14T08:32:56;0.63;;;0.10;;
71288;SDS011;59068;52.502;9.860;2023-03-14T08:35:22;0.63;;;0.33;;
71288;SDS011;59068;52.502;9.860;2023-03-14T08:37:48;0.17;;;0.10;;
71288;SDS011;59068;52.502;9.860;2023-03-14T08:40:14;0.87;;;0.20;;
71288;SDS011;59068;52.502;9.860;2023-03-14T08:42:42;1.93;;;0.40;;
71288;SDS011;59068;52.502;9.860;2023-03-14T08:45:08;1.17;;;0.40;;
71288;SDS011;59068;52.502;9.860;2023-03-14T08:47:39;1.47;;;0.30;;
71288;SDS011;59068;52.502;9.860;2023-03-14T08:50:05;0.40;;;0.10;;
71288;SDS011;59068;52.502;9.860;2023-03-14T08:52:33;2.00;;;0.30;;
71288;SDS011;59068;52.502;9.860;2023-03-14T08:54:58;0.23;;;0.10;;
71288;SDS011;59068;52.502;9.860;2023-03-14T08:57:24;2.67;;;0.30;;
71288;SDS011;59068;52.502;9.860;2023-03-14T08:59:54;1.33;;;0.30;;
71288;SDS011;59068;52.502;9.860;2023-03-14T09:02:21;1.60;;;0.17;;
71288;SDS011;59068;52.502;9.860;2023-03-14T09:04:49;0.43;;;0.23;;
71288;SDS011;59068;52.502;9.860;2023-03-14T09:07:16;2.07;;;0.33;;
71288;SDS011;59068;52.502;9.860;2023-03-14T09:09:44;0.27;;;0.20;;
71288;SDS011;59068;52.502;9.860;2023-03-14T09:12:10;0.27;;;0.10;;
71288;SDS011;59068;52.502;9.860;2023-03-14T09:14:37;0.50;;;0.13;;
71288;SDS011;59068;52.502;9.860;2023-03-14T09:17:03;1.17;;;0.27;;
71288;SDS011;59068;52.502;9.860;2023-03-14T09:19:31;0.77;;;0.20;;
71288;SDS011;59068;52.502;9.860;2023-03-14T09:21:57;1.23;;;0.20;;
71288;SDS011;59068;52.502;9.860;2023-03-14T09:24:24;1.67;;;0.30;;
71288;SDS011;59068;52.502;9.860;2023-03-14T09:26:51;0.43;;;0.30;;
71288;SDS011;59068;52.502;9.860;2023-03-14T09:29:18;0.10;;;0.10;;
71288;SDS011;59068;52.502;9.860;2023-03-14T09:31:45;0.93;;;0.20;;
71288;SDS011;59068;52.502;9.860;2023-03-14T09:34:12;0.63;;;0.20;;
71288;SDS011;59068;52.502;9.860;2023-03-14T09:36:38;0.83;;;0.30;;
71288;SDS011;59068;52.502;9.860;2023-03-14T09:39:05;1.00;;;0.30;;
71288;SDS011;59068;52.502;9.860;2023-03-14T09:41:33;2.13;;;0.30;;
71288;SDS011;59068;52.502;9.860;2023-03-14T09:44:10;0.70;;;0.23;;
71288;SDS011;59068;52.502;9.860;2023-03-14T09:46:40;1.30;;;0.40;;
71288;SDS011;59068;52.502;9.860;2023-03-14T09:49:20;0.80;;;0.20;;
71288;SDS011;59068;52.502;9.860;2023-03-14T09:51:50;0.50;;;0.50;;
71288;SDS011;59068;52.502;9.860;2023-03-14T09:54:22;0.37;;;0.37;;
71288;SDS011;59068;52.502;9.860;2023-03-14T09:57:13;1.57;;;0.60;;
71288;SDS011;59068;52.502;9.860;2023-03-14T09:59:43;0.40;;;0.40;;
71288;SDS011;59068;52.502;9.860;2023-03-14T10:02:14;1.10;;;0.77;;
71288;SDS011;59068;52.502;9.860;2023-03-14T10:04:47;0.77;;;0.77;;
71288;SDS011;59068;52.502;9.860;2023-03-14T10:07:32;0.90;;;0.60;;
71288;SDS011;59068;52.502;9.860;2023-03-14T10:09:58;0.87;;;0.57;;
71288;SDS011;59068;52.502;9.860;2023-03-14T10:12:35;0.60;;;0.53;;
71288;SDS011;59068;52.502;9.860;2023-03-14T10:15:04;0.57;;;0.57;;
71288;SDS011;59068;52.502;9.860;2023-03-14T10:17:38;1.07;;;0.90;;
71288;SDS011;59068;52.502;9.860;2023-03-14T10:23:06;0.87;;;0.83;;
71288;SDS011;59068;52.502;9.860;2023-03-14T10:25:45;0.50;;;0.50;;
71288;SDS011;59068;52.502;9.860;2023-03-14T10:31:11;0.87;;;0.63;;
71288;SDS011;59068;52.502;9.860;2023-03-14T10:33:37;1.20;;;0.67;;
71288;SDS011;59068;52.502;9.860;2023-03-14T10:38:46;0.90;;;0.90;;
71288;SDS011;59068;52.502;9.860;2023-03-14T10:41:16;1.00;;;0.80;;
71288;SDS011;59068;52.502;9.860;2023-03-14T10:43:44;1.23;;;0.77;;
71288;SDS011;59068;52.502;9.860;2023-03-14T10:46:14;0.67;;;0.67;;
71288;SDS011;59068;52.502;9.860;2023-03-14T10:48:42;1.73;;;1.13;;
71288;SDS011;59068;52.502;9.860;2023-03-14T10:51:18;1.90;;;1.73;;
71288;SDS011;59068;52.502;9.860;2023-03-14T10:56:17;1.10;;;1.10;;
71288;SDS011;59068;52.502;9.860;2023-03-14T10:58:45;1.13;;;1.13;;
71288;SDS011;59068;52.502;9.860;2023-03-14T11:01:15;1.10;;;1.10;;
71288;SDS011;59068;52.502;9.860;2023-03-14T11:04:10;1.10;;;1.10;;
71288;SDS011;59068;52.502;9.860;2023-03-14T11:10:04;2.10;;;1.40;;
71288;SDS011;59068;52.502;9.860;2023-03-14T11:15:50;1.70;;;1.60;;
71288;SDS011;59068;52.502;9.860;2023-03-14T11:20:38;1.50;;;0.80;;
71288;SDS011;59068;52.502;9.860;2023-03-14T11:28:41;1.57;;;0.70;;
71288;SDS011;59068;52.502;9.860;2023-03-14T11:31:17;1.53;;;0.50;;
71288;SDS011;59068;52.502;9.860;2023-03-14T11:34:01;1.33;;;0.53;;
71288;SDS011;59068;52.502;9.860;2023-03-14T11:36:59;0.83;;;0.67;;
71288;SDS011;59068;52.502;9.860;2023-03-14T11:39:26;1.47;;;0.77;;
71288;SDS011;59068;52.502;9.860;2023-03-14T11:41:55;1.83;;;0.67;;
71288;SDS011;59068;52.502;9.860;2023-03-14T11:44:24;1.83;;;0.90;;
71288;SDS011;59068;52.502;9.860;2023-03-14T11:47:09;1.67;;;0.90;;
71288;SDS011;59068;52.502;9.860;2023-03-14T11:49:53;0.97;;;0.80;;
71288;SDS011;59068;52.502;9.860;2023-03-14T11:52:25;0.53;;;0.40;;
71288;SDS011;59068;52.502;9.860;2023-03-14T11:57:45;1.10;;;0.40;;
71288;SDS011;59068;52.502;9.860;2023-03-14T12:00:13;0.30;;;0.30;;
71288;SDS011;59068;52.502;9.860;2023-03-14T12:02:53;1.10;;;0.30;;
71288;SDS011;59068;52.502;9.860;2023-03-14T12:13:12;0.00;;;0.00;;
71288;SDS011;59068;52.502;9.860;2023-03-14T12:15:40;0.77;;;0.10;;
71288;SDS011;59068;52.502;9.860;2023-03-14T12:18:18;0.37;;;0.10;;
71288;SDS011;59068;52.502;9.860;2023-03-14T12:20:51;0.10;;;0.10;;
71288;SDS011;59068;52.502;9.860;2023-03-14T12:23:18;0.10;;;0.10;;
71288;SDS011;59068;52.502;9.860;2023-03-14T12:25:45;0.60;;;0.20;;
71288;SDS011;59068;52.502;9.860;2023-03-14T12:28:20;0.90;;;0.50;;
71288;SDS011;59068;52.502;9.860;2023-03-14T12:30:47;2.03;;;0.40;;
71288;SDS011;59068;52.502;9.860;2023-03-14T12:33:19;0.57;;;0.20;;
71288;SDS011;59068;52.502;9.860;2023-03-14T12:35:49;0.53;;;0.20;;
71288;SDS011;59068;52.502;9.860;2023-03-14T12:38:17;0.20;;;0.20;;
71288;SDS011;59068;52.502;9.860;2023-03-14T12:43:46;0.87;;;0.10;;
71288;SDS011;59068;52.502;9.860;2023-03-14T12:48:47;0.30;;;0.20;;
71288;SDS011;59068;52.502;9.860;2023-03-14T12:51:20;1.70;;;0.20;;
71288;SDS011;59068;52.502;9.860;2023-03-14T12:54:09;0.63;;;0.63;;
71288;SDS011;59068;52.502;9.860;2023-03-14T12:59:56;1.90;;;0.40;;
71288;SDS011;59068;52.502;9.860;2023-03-14T13:02:41;1.43;;;0.37;;
71288;SDS011;59068;52.502;9.860;2023-03-14T13:05:12;1.80;;;1.03;;
71288;SDS011;59068;52.502;9.860;2023-03-14T13:15:18;3.57;;;0.60;;
71288;SDS011;59068;52.502;9.860;2023-03-14T13:17:46;3.73;;;0.70;;
71288;SDS011;59068;52.502;9.860;2023-03-14T13:20:16;0.97;;;0.30;;
71288;SDS011;59068;52.502;9.860;2023-03-14T13:22:46;2.17;;;0.80;;
71288;SDS011;59068;52.502;9.860;2023-03-14T13:25:13;5.00;;;1.07;;
71288;SDS011;59068;52.502;9.860;2023-03-14T13:27:38;2.50;;;0.70;;
71288;SDS011;59068;52.502;9.860;2023-03-14T13:30:14;4.63;;;0.90;;
71288;SDS011;59068;52.502;9.860;2023-03-14T13:32:50;4.03;;;0.73;;
71288;SDS011;59068;52.502;9.860;2023-03-14T13:35:20;4.70;;;1.00;;
71288;SDS011;59068;52.502;9.860;2023-03-14T13:37:57;5.83;;;0.83;;
71288;SDS011;59068;52.502;9.860;2023-03-14T13:40:25;4.43;;;1.00;;
71288;SDS011;59068;52.502;9.860;2023-03-14T13:43:01;6.67;;;1.20;;
71288;SDS011;59068;52.502;9.860;2023-03-14T13:45:29;2.93;;;0.90;;
71288;SDS011;59068;52.502;9.860;2023-03-14T13:47:55;4.77;;;1.30;;
71288;SDS011;59068;52.502;9.860;2023-03-14T13:50:21;2.90;;;0.80;;
71288;SDS011;59068;52.502;9.860;2023-03-14T13:52:46;6.20;;;0.97;;
71288;SDS011;59068;52.502;9.860;2023-03-14T13:55:16;3.23;;;0.80;;
71288;SDS011;59068;52.502;9.860;2023-03-14T13:57:51;4.03;;;0.83;;
71288;SDS011;59068;52.502;9.860;2023-03-14T14:02:56;4.57;;;0.73;;
71288;SDS011;59068;52.502;9.860;2023-03-14T14:05:28;3.40;;;1.03;;
71288;SDS011;59068;52.502;9.860;2023-03-14T14:07:54;5.83;;;0.93;;
71288;SDS011;59068;52.502;9.860;2023-03-14T14:10:20;5.70;;;1.40;;
71288;SDS011;59068;52.502;9.860;2023-03-14T14:12:53;8.30;;;1.83;;
71288;SDS011;59068;52.502;9.860;2023-03-14T14:15:27;6.13;;;1.40;;
71288;SDS011;59068;52.502;9.860;2023-03-14T14:17:56;7.27;;;2.70;;
71288;SDS011;59068;52.502;9.860;2023-03-14T14:22:58;10.47;;;2.23;;
71288;SDS011;59068;52.502;9.860;2023-03-14T14:25:25;7.13;;;2.00;;
71288;SDS011;59068;52.502;9.860;2023-03-14T14:27:51;9.97;;;1.50;;
71288;SDS011;59068;52.502;9.860;2023-03-14T14:32:41;9.30;;;1.57;;
71288;SDS011;59068;52.502;9.860;2023-03-14T14:35:08;9.17;;;1.80;;
71288;SDS011;59068;52.502;9.860;2023-03-14T14:37:43;5.67;;;0.97;;
71288;SDS011;59068;52.502;9.860;2023-03-14T14:40:10;10.00;;;1.63;;
71288;SDS011;59068;52.502;9.860;2023-03-14T14:42:40;7.00;;;1.97;;
71288;SDS011;59068;52.502;9.860;2023-03-14T14:45:07;5.27;;;1.77;;
71288;SDS011;59068;52.502;9.860;2023-03-14T14:47:48;5.60;;;0.97;;
71288;SDS011;59068;52.502;9.860;2023-03-14T14:50:28;7.97;;;1.50;;
71288;SDS011;59068;52.502;9.860;2023-03-14T14:53:01;4.83;;;1.10;;
71288;SDS011;59068;52.502;9.860;2023-03-14T14:55:34;6.27;;;2.13;;
71288;SDS011;59068;52.502;9.860;2023-03-14T14:58:17;5.67;;;1.30;;
71288;SDS011;59068;52.502;9.860;2023-03-14T15:01:20;7.63;;;1.70;;
71288;SDS011;59068;52.502;9.860;2023-03-14T15:03:45;7.83;;;1.63;;
71288;SDS011;59068;52.502;9.860;2023-03-14T15:06:12;7.77;;;1.27;;
71288;SDS011;59068;52.502;9.860;2023-03-14T15:08:39;4.53;;;1.43;;
71288;SDS011;59068;52.502;9.860;2023-03-14T15:11:04;8.53;;;1.50;;
71288;SDS011;59068;52.502;9.860;2023-03-14T15:13:30;7.43;;;1.20;;
71288;SDS011;59068;52.502;9.860;2023-03-14T15:15:55;6.30;;;1.70;;
71288;SDS011;59068;52.502;9.860;2023-03-14T15:18:22;9.93;;;2.70;;
71288;SDS011;59068;52.502;9.860;2023-03-14T15:20:50;7.73;;;1.40;;
71288;SDS011;59068;52.502;9.860;2023-03-14T15:23:17;3.93;;;1.23;;
71288;SDS011;59068;52.502;9.860;2023-03-14T15:25:43;8.13;;;2.00;;
71288;SDS011;59068;52.502;9.860;2023-03-14T15:28:14;4.97;;;1.47;;
71288;SDS011;59068;52.502;9.860;2023-03-14T15:30:41;4.60;;;1.53;;
71288;SDS011;59068;52.502;9.860;2023-03-14T15:33:07;5.97;;;1.30;;
71288;SDS011;59068;52.502;9.860;2023-03-14T15:35:34;7.97;;;1.40;;
71288;SDS011;59068;52.502;9.860;2023-03-14T15:38:01;7.37;;;1.97;;
71288;SDS011;59068;52.502;9.860;2023-03-14T15:40:26;4.33;;;1.30;;
71288;SDS011;59068;52.502;9.860;2023-03-14T15:42:52;4.73;;;1.00;;
71288;SDS011;59068;52.502;9.860;2023-03-14T15:45:17;6.63;;;1.43;;
71288;SDS011;59068;52.502;9.860;2023-03-14T15:47:42;6.73;;;1.43;;
71288;SDS011;59068;52.502;9.860;2023-03-14T15:50:08;6.73;;;2.97;;
71288;SDS011;59068;52.502;9.860;2023-03-14T15:52:35;4.80;;;1.37;;
71288;SDS011;59068;52.502;9.860;2023-03-14T15:55:00;5.30;;;1.30;;
71288;SDS011;59068;52.502;9.860;2023-03-14T15:57:26;2.67;;;0.67;;
71288;SDS011;59068;52.502;9.860;2023-03-14T15:59:51;4.27;;;1.67;;